Wilkes Barre Scranton International Airport Wilkes-Barre,Scranton US
ICAO: KAVP
IATA: AVP
Category: Medium
Scheduled Services: Yes

Elevation: 962 ft
TransAlt. 18000 ft.

Airport Communications:
APP/DEP:124.5
ATIS:111.6
GND:121.9
WILLIAMSPORT RDO:122.2
TWR:120.1
UNICOM:122.95

KAVP Zoom In..

If you have problems with the map follow the link
https://www.worldairports.se/pages/airport.php?
ICAO=KAVP

Runways:

(A) RW 04 length 7501 ft width 150 ft
ILS 109.90 / hdg 43

(B) RW 10 length 4300 ft width 150 ft
---- / hdg 102

(C) RW 22 length 7501 ft width 150 ft
ILS 109.90 / hdg 223

(D) RW 28 length 4300 ft width 150 ft
---- / hdg 282

Location; KAVP
Day. 14 / Time. 05.39 Zulu
* Altimeter: 29.81
* Temperature: 06° c. 42.8°f.
* Wind from: 070° Speed 05 kn.
Dewpoint: 04° c.
Visibility: 2 Statute Miles.
Clouds: Few 500 ft.
Clouds: Overcast 2500 ft.
Conditions: Rain.Conditions: Mist.

KAVP 140539Z 07005KT 2SM RA BR FEW005 OVC025 06/04 A2981 RMK AO2 P0014 T00610044


Wind From 070°
Speed 05 kn.

 
 
jpsmedia worldairports.se 2019   terms of use